createdAt,value
2023-06-10T00:02:36.334Z,20.54
2023-06-10T00:05:23.645Z,20.26
2023-06-10T00:08:04.049Z,20.19
2023-06-10T00:10:44.207Z,20.16
2023-06-10T00:13:23.626Z,20.34
2023-06-10T00:16:02.944Z,20.81
2023-06-10T00:18:42.657Z,20.93
2023-06-10T00:21:27.490Z,20.54
2023-06-10T00:24:07.644Z,20.25
2023-06-10T00:26:47.251Z,19.79
2023-06-10T00:29:26.677Z,19.22
2023-06-10T00:32:06.497Z,19.39
2023-06-10T00:34:45.804Z,19.72
2023-06-10T00:37:31.026Z,19.88
2023-06-10T00:40:11.553Z,19.71
2023-06-10T00:42:50.905Z,20.01
2023-06-10T00:45:30.251Z,19.98
2023-06-10T00:48:10.822Z,20.63
2023-06-10T00:50:50.359Z,20.28
2023-06-10T00:53:36.158Z,20.34
2023-06-10T00:56:16.564Z,20.04
2023-06-10T00:58:56.804Z,19.92
2023-06-10T01:01:37.336Z,20.51
2023-06-10T01:04:17.146Z,20.39
2023-06-10T01:07:18.741Z,20.30
2023-06-10T01:10:10.727Z,20.39
2023-06-10T01:12:55.963Z,20.46
2023-06-10T01:15:35.540Z,20.95
2023-06-10T01:18:17.341Z,20.82
2023-06-10T01:20:56.960Z,22.28
2023-06-10T01:23:41.780Z,21.66
2023-06-10T01:26:23.959Z,21.28
2023-06-10T01:29:08.459Z,21.12
2023-06-10T01:31:56.679Z,21.20
2023-06-10T01:34:40.381Z,21.30
2023-06-10T01:37:24.237Z,21.32
2023-06-10T01:40:11.665Z,21.14
2023-06-10T01:42:51.032Z,21.04
2023-06-10T01:45:30.637Z,20.73
2023-06-10T01:48:10.094Z,20.61
2023-06-10T01:50:49.497Z,21.06
2023-06-10T01:53:28.803Z,20.93
2023-06-10T01:56:19.033Z,20.16
2023-06-10T01:59:01.358Z,20.03
2023-06-10T02:01:41.768Z,19.91
2023-06-10T02:04:21.423Z,19.84
2023-06-10T02:07:00.813Z,19.99
2023-06-10T02:09:40.620Z,20.49
2023-06-10T02:12:25.067Z,20.55
2023-06-10T02:15:04.471Z,20.33
2023-06-10T02:17:43.890Z,20.28
2023-06-10T02:20:23.514Z,20.28
2023-06-10T02:23:02.886Z,20.65
2023-06-10T02:25:42.307Z,20.49
2023-06-10T02:28:27.169Z,22.42
2023-06-10T02:31:06.929Z,21.97
2023-06-10T02:33:47.211Z,22.71
2023-06-10T02:36:26.727Z,22.73
2023-06-10T02:39:06.522Z,22.26
2023-06-10T02:41:45.868Z,23.34
2023-06-10T02:44:30.351Z,22.70
2023-06-10T02:47:09.769Z,22.51
2023-06-10T02:49:49.126Z,22.26
2023-06-10T02:52:28.521Z,22.62
2023-06-10T02:55:08.131Z,22.73
2023-06-10T02:57:47.647Z,21.60
2023-06-10T03:00:32.385Z,21.63
2023-06-10T03:03:12.954Z,21.93
2023-06-10T03:05:52.310Z,23.25
2023-06-10T03:08:32.127Z,21.90
2023-06-10T03:11:12.679Z,22.84
2023-06-10T03:13:52.384Z,23.37
2023-06-10T03:16:37.473Z,22.25
2023-06-10T03:19:17.394Z,22.55
2023-06-10T03:22:02.598Z,22.42
2023-06-10T03:24:42.313Z,23.03
2023-06-10T03:27:21.746Z,23.17
2023-06-10T03:30:01.129Z,23.78
2023-06-10T03:32:45.635Z,23.16
2023-06-10T03:35:25.005Z,22.83
2023-06-10T03:38:04.379Z,22.49
2023-06-10T03:40:43.705Z,23.10
2023-06-10T03:43:23.864Z,22.95
2023-06-10T03:46:03.374Z,22.89
2023-06-10T03:48:47.843Z,22.66
2023-06-10T03:51:27.158Z,21.11
2023-06-10T03:54:06.560Z,20.60
2023-06-10T03:56:46.413Z,20.67
2023-06-10T03:59:25.812Z,21.51
2023-06-10T04:02:08.014Z,21.09
2023-06-10T04:04:53.405Z,20.94
2023-06-10T04:07:33.133Z,20.47
2023-06-10T04:10:13.493Z,20.82
2023-06-10T04:12:53.652Z,21.23
2023-06-10T04:15:35.010Z,21.39
2023-06-10T04:18:15.065Z,21.39
2023-06-10T04:20:59.723Z,20.92
2023-06-10T04:23:39.082Z,20.43
2023-06-10T04:26:19.412Z,21.66
2023-06-10T04:28:58.767Z,21.81
2023-06-10T04:31:38.210Z,22.10
2023-06-10T04:34:17.553Z,21.96
2023-06-10T04:37:02.105Z,22.16
2023-06-10T04:39:41.465Z,22.92
2023-06-10T04:42:20.789Z,23.89
2023-06-10T04:45:00.143Z,24.11
2023-06-10T04:47:40.355Z,25.06
2023-06-10T04:50:19.759Z,23.80
2023-06-10T04:53:04.559Z,24.02
2023-06-10T04:55:43.916Z,24.16
2023-06-10T04:58:23.407Z,24.32
2023-06-10T05:01:07.547Z,23.90
2023-06-10T05:03:47.046Z,23.42
2023-06-10T05:06:26.426Z,23.16
2023-06-10T05:09:10.925Z,23.29
2023-06-10T05:11:50.476Z,23.13
2023-06-10T05:14:30.027Z,23.39
2023-06-10T05:17:09.375Z,23.43
2023-06-10T05:19:49.520Z,24.25
2023-06-10T05:22:29.734Z,24.18
2023-06-10T05:25:15.439Z,24.07
2023-06-10T05:27:54.793Z,24.25
2023-06-10T05:30:34.167Z,24.08
2023-06-10T05:33:14.120Z,24.42
2023-06-10T05:35:53.809Z,24.13
2023-06-10T05:38:33.117Z,23.98
2023-06-10T05:41:17.543Z,22.98
2023-06-10T05:43:56.959Z,22.86
2023-06-10T05:46:36.880Z,23.43
2023-06-10T05:49:16.225Z,23.18
2023-06-10T05:51:55.620Z,22.78
2023-06-10T05:54:35.498Z,23.30
2023-06-10T05:57:20.246Z,23.25
2023-06-10T05:59:59.563Z,23.46
2023-06-10T06:02:38.970Z,22.88
2023-06-10T06:05:18.554Z,23.50
2023-06-10T06:07:58.080Z,23.04
2023-06-10T06:10:37.533Z,24.02
2023-06-10T06:13:21.974Z,23.88
2023-06-10T06:16:01.482Z,23.67
2023-06-10T06:18:41.028Z,23.61
2023-06-10T06:21:20.403Z,23.30
2023-06-10T06:24:00.415Z,23.25
2023-06-10T06:26:39.851Z,22.75
2023-06-10T06:29:24.335Z,22.79
2023-06-10T06:32:03.736Z,21.75
2023-06-10T06:34:43.140Z,21.48
2023-06-10T06:37:22.464Z,21.20
2023-06-10T06:40:04.380Z,21.35
2023-06-10T06:42:44.011Z,20.99
2023-06-10T06:45:28.711Z,21.16
2023-06-10T06:48:08.254Z,21.64
2023-06-10T06:50:49.018Z,21.57
2023-06-10T06:53:30.967Z,22.17
2023-06-10T06:56:11.445Z,20.82
2023-06-10T06:58:50.769Z,20.53
2023-06-10T07:01:35.256Z,20.60
2023-06-10T07:04:14.619Z,20.51
2023-06-10T07:06:54.013Z,19.84
2023-06-10T07:09:33.352Z,19.24
2023-06-10T07:12:13.741Z,18.64
2023-06-10T07:14:53.317Z,19.26
2023-06-10T07:17:37.795Z,18.08
2023-06-10T07:20:18.240Z,18.54
2023-06-10T07:22:57.582Z,19.58
2023-06-10T07:25:36.960Z,17.27
2023-06-10T07:28:16.416Z,15.81
2023-06-10T07:30:55.794Z,15.11
2023-06-10T07:33:41.426Z,14.47
2023-06-10T07:36:20.789Z,14.32
2023-06-10T07:39:00.148Z,15.14
2023-06-10T07:41:39.511Z,14.76
2023-06-10T07:44:18.844Z,14.74
2023-06-10T07:47:00.106Z,14.69
2023-06-10T07:49:44.850Z,14.63
2023-06-10T07:52:24.158Z,14.55
2023-06-10T07:55:03.489Z,14.67
2023-06-10T07:57:43.231Z,14.64
2023-06-10T08:00:23.315Z,14.33
2023-06-10T08:03:02.823Z,14.30
2023-06-10T08:05:47.859Z,14.48
2023-06-10T08:08:27.630Z,14.28
2023-06-10T08:11:07.057Z,13.97
2023-06-10T08:13:46.721Z,14.40
2023-06-10T08:16:26.155Z,14.53
2023-06-10T08:19:05.493Z,13.75
2023-06-10T08:21:49.949Z,14.38
2023-06-10T08:24:29.299Z,14.45
2023-06-10T08:27:08.651Z,14.16
2023-06-10T08:29:48.449Z,13.98
2023-06-10T08:32:27.814Z,13.52
2023-06-10T08:35:07.525Z,13.33
2023-06-10T08:37:52.393Z,12.74
2023-06-10T08:40:31.922Z,12.77
2023-06-10T08:43:15.573Z,12.48
2023-06-10T08:45:57.823Z,12.02
2023-06-10T08:48:38.914Z,12.59
2023-06-10T08:51:19.870Z,12.41
2023-06-10T08:54:10.997Z,12.16
2023-06-10T08:56:52.350Z,11.65
2023-06-10T08:59:33.607Z,11.89
2023-06-10T09:02:14.536Z,11.30
2023-06-10T09:04:55.575Z,11.93
2023-06-10T09:08:11.524Z,11.03
2023-06-10T09:10:56.335Z,11.28
2023-06-10T09:13:35.788Z,10.91
2023-06-10T09:16:16.215Z,11.11
2023-06-10T09:18:57.504Z,11.20
2023-06-10T09:21:38.047Z,11.67
2023-06-10T09:24:17.861Z,11.15
2023-06-10T09:27:11.324Z,11.24
2023-06-10T09:30:01.251Z,10.14
2023-06-10T09:32:47.137Z,10.57
2023-06-10T09:35:26.999Z,9.86
2023-06-10T09:38:10.667Z,9.34
2023-06-10T09:40:58.429Z,8.97
2023-06-10T09:43:53.857Z,8.47
2023-06-10T09:46:40.018Z,8.36
2023-06-10T09:49:19.413Z,8.43
2023-06-10T09:51:59.885Z,7.94
2023-06-10T09:54:40.756Z,7.85
2023-06-10T09:57:20.203Z,8.12
2023-06-10T10:00:05.687Z,8.03
2023-06-10T10:02:53.712Z,7.95
2023-06-10T10:05:33.343Z,7.96
2023-06-10T10:08:13.191Z,7.87
2023-06-10T10:10:52.602Z,8.11
2023-06-10T10:13:34.624Z,7.93
2023-06-10T10:16:24.959Z,8.22
2023-06-10T10:19:10.246Z,8.17
2023-06-10T10:21:57.073Z,7.82
2023-06-10T10:24:42.077Z,7.95
2023-06-10T10:27:27.264Z,8.04
2023-06-10T10:30:10.985Z,8.18
2023-06-10T10:33:10.287Z,7.81
2023-06-10T10:35:50.932Z,8.00
2023-06-10T10:38:31.213Z,7.91
2023-06-10T10:41:12.756Z,7.62
2023-06-10T10:43:54.945Z,7.72
2023-06-10T10:46:34.333Z,7.34
2023-06-10T10:49:22.261Z,7.06
2023-06-10T10:52:07.640Z,6.62
2023-06-10T10:54:53.236Z,6.66
2023-06-10T10:57:32.747Z,6.84
2023-06-10T11:00:17.381Z,6.91
2023-06-10T11:03:00.404Z,7.28
2023-06-10T11:05:51.375Z,7.15
2023-06-10T11:08:56.706Z,7.16
2023-06-10T11:11:37.954Z,6.88
2023-06-10T11:14:17.308Z,6.79
2023-06-10T11:16:58.396Z,6.72
2023-06-10T11:19:43.356Z,7.53
2023-06-10T11:22:29.844Z,6.89
2023-06-10T11:25:09.442Z,6.54
2023-06-10T11:27:49.004Z,6.32
2023-06-10T11:30:29.317Z,6.16
2023-06-10T11:33:08.851Z,6.57
2023-06-10T11:35:48.652Z,6.45
2023-06-10T11:38:33.625Z,6.35
2023-06-10T11:41:13.090Z,6.77
2023-06-10T11:43:52.758Z,6.49
2023-06-10T11:46:33.652Z,6.10
2023-06-10T11:49:14.388Z,6.42
2023-06-10T11:51:56.468Z,6.15
2023-06-10T11:54:40.905Z,6.45
2023-06-10T11:57:20.284Z,5.97
2023-06-10T11:59:59.783Z,6.32
2023-06-10T12:02:39.300Z,6.58
2023-06-10T12:05:22.446Z,6.67
2023-06-10T12:08:17.060Z,6.14
2023-06-10T12:11:02.375Z,6.41
2023-06-10T12:13:41.883Z,6.48
2023-06-10T12:16:21.661Z,6.40
2023-06-10T12:19:10.610Z,6.80
2023-06-10T12:21:49.944Z,6.30
2023-06-10T12:24:29.816Z,6.64
2023-06-10T12:27:19.991Z,6.54
2023-06-10T12:30:03.005Z,6.33
2023-06-10T12:32:48.196Z,6.50
2023-06-10T12:35:29.859Z,6.31
2023-06-10T12:38:14.361Z,6.29
2023-06-10T12:40:53.787Z,6.29
2023-06-10T12:43:40.207Z,6.31
2023-06-10T12:46:21.331Z,6.68
2023-06-10T12:49:00.725Z,6.79
2023-06-10T12:51:40.031Z,6.68
2023-06-10T12:54:19.857Z,7.08
2023-06-10T12:56:59.628Z,6.60
2023-06-10T12:59:48.033Z,6.53
2023-06-10T13:02:28.320Z,6.44
2023-06-10T13:05:07.796Z,6.39
2023-06-10T13:07:54.160Z,6.33
2023-06-10T13:10:33.587Z,6.33
2023-06-10T13:13:13.537Z,6.20
2023-06-10T13:15:57.916Z,6.14
2023-06-10T13:18:39.695Z,6.45
2023-06-10T13:21:18.998Z,6.22
2023-06-10T13:23:58.608Z,6.34
2023-06-10T13:26:38.074Z,5.72
2023-06-10T13:29:18.159Z,6.28
2023-06-10T13:32:02.518Z,6.21
2023-06-10T13:34:41.840Z,6.33
2023-06-10T13:37:21.536Z,6.09
2023-06-10T13:40:00.854Z,6.01
2023-06-10T13:42:40.248Z,5.94
2023-06-10T13:45:19.623Z,6.13
2023-06-10T13:48:05.765Z,6.37
2023-06-10T13:50:47.796Z,6.52
2023-06-10T13:53:27.127Z,7.01
2023-06-10T13:56:06.448Z,6.56
2023-06-10T13:58:45.780Z,6.52
2023-06-10T14:01:25.108Z,6.23
2023-06-10T14:04:10.069Z,6.39
2023-06-10T14:06:49.452Z,6.42
2023-06-10T14:09:28.757Z,6.58
2023-06-10T14:12:08.403Z,6.02
2023-06-10T14:14:47.694Z,6.29
2023-06-10T14:17:27.091Z,6.23
2023-06-10T14:20:12.289Z,6.03
2023-06-10T14:22:51.631Z,6.00
2023-06-10T14:25:30.930Z,5.91
2023-06-10T14:28:10.451Z,5.70
2023-06-10T14:30:49.716Z,5.82
2023-06-10T14:33:29.024Z,5.61
2023-06-10T14:36:13.709Z,5.90
2023-06-10T14:38:53.598Z,5.95
2023-06-10T14:41:32.980Z,5.92
2023-06-10T14:44:12.496Z,5.94
2023-06-10T14:46:51.880Z,6.07
2023-06-10T14:49:31.385Z,6.28
2023-06-10T14:52:16.650Z,6.12
2023-06-10T14:54:55.972Z,5.98
2023-06-10T14:57:36.975Z,5.86
2023-06-10T15:00:19.246Z,6.18
2023-06-10T15:03:00.226Z,5.75
2023-06-10T15:05:40.100Z,5.88
2023-06-10T15:08:24.538Z,6.14
2023-06-10T15:11:04.953Z,6.44
2023-06-10T15:13:44.258Z,6.07
2023-06-10T15:16:23.725Z,5.84
2023-06-10T15:19:03.097Z,6.29
2023-06-10T15:21:42.439Z,6.67
2023-06-10T15:24:26.924Z,6.05
2023-06-10T15:27:06.263Z,6.60
2023-06-10T15:29:45.725Z,6.54
2023-06-10T15:32:25.140Z,6.99
2023-06-10T15:35:04.502Z,6.93
2023-06-10T15:37:43.842Z,6.96
2023-06-10T15:40:28.484Z,6.67
2023-06-10T15:43:07.875Z,6.52
2023-06-10T15:45:47.244Z,6.31
2023-06-10T15:48:26.568Z,6.45
2023-06-10T15:51:05.876Z,6.29
2023-06-10T15:53:45.162Z,6.23
2023-06-10T15:56:30.087Z,6.31
2023-06-10T15:59:09.437Z,6.26
2023-06-10T16:01:49.901Z,6.37
2023-06-10T16:04:29.319Z,6.23
2023-06-10T16:07:08.634Z,6.18
2023-06-10T16:09:48.041Z,6.71
2023-06-10T16:12:32.657Z,7.10
2023-06-10T16:15:13.703Z,6.55
2023-06-10T16:17:53.176Z,7.18
2023-06-10T16:20:32.538Z,7.53
2023-06-10T16:23:12.985Z,7.66
2023-06-10T16:25:52.697Z,7.77
2023-06-10T16:28:37.099Z,8.09
2023-06-10T16:31:16.505Z,8.02
2023-06-10T16:33:56.903Z,9.07
2023-06-10T16:36:36.248Z,9.22
2023-06-10T16:39:15.615Z,9.21
2023-06-10T16:41:54.948Z,9.56
2023-06-10T16:44:39.428Z,9.92
2023-06-10T16:47:18.771Z,9.26
2023-06-10T16:49:58.508Z,9.24
2023-06-10T16:52:38.260Z,9.65
2023-06-10T16:55:17.913Z,10.29
2023-06-10T16:57:57.395Z,10.28
2023-06-10T17:00:43.244Z,10.64
2023-06-10T17:03:22.637Z,10.43
2023-06-10T17:06:02.018Z,10.49
2023-06-10T17:08:41.502Z,10.54
2023-06-10T17:11:20.841Z,10.88
2023-06-10T17:14:00.257Z,10.74
2023-06-10T17:16:44.856Z,11.05
2023-06-10T17:19:24.261Z,10.81
2023-06-10T17:22:03.883Z,10.24
2023-06-10T17:24:44.027Z,11.05
2023-06-10T17:27:25.982Z,10.88
2023-06-10T17:30:05.632Z,10.83
2023-06-10T17:32:50.486Z,10.73
2023-06-10T17:35:29.817Z,11.08
2023-06-10T17:38:09.143Z,10.81
2023-06-10T17:40:48.501Z,10.92
2023-06-10T17:43:28.000Z,11.36
2023-06-10T17:46:07.386Z,10.81
2023-06-10T17:48:51.917Z,11.36
2023-06-10T17:51:31.680Z,11.42
2023-06-10T17:54:11.285Z,11.08
2023-06-10T17:56:50.738Z,11.63
2023-06-10T17:59:30.122Z,11.76
2023-06-10T18:02:10.071Z,11.42
2023-06-10T18:04:54.585Z,11.16
2023-06-10T18:07:33.912Z,10.89
2023-06-10T18:10:14.432Z,11.59
2023-06-10T18:12:53.819Z,11.14
2023-06-10T18:15:38.820Z,11.56
2023-06-10T18:18:18.231Z,11.08
2023-06-10T18:21:03.209Z,11.48
2023-06-10T18:23:42.718Z,11.83
2023-06-10T18:26:22.134Z,12.35
2023-06-10T18:29:01.618Z,12.28
2023-06-10T18:31:41.009Z,11.98
2023-06-10T18:34:20.428Z,11.75
2023-06-10T18:37:04.824Z,12.07
2023-06-10T18:39:44.124Z,12.11
2023-06-10T18:42:23.538Z,12.43
2023-06-10T18:45:02.929Z,12.11
2023-06-10T18:47:56.631Z,11.77
2023-06-10T18:50:37.195Z,12.35
2023-06-10T18:53:21.679Z,12.44
2023-06-10T18:56:03.866Z,13.23
2023-06-10T18:58:45.712Z,13.24
2023-06-10T19:01:25.251Z,12.77
2023-06-10T19:04:05.477Z,13.23
2023-06-10T19:06:45.118Z,12.56
2023-06-10T19:09:29.549Z,12.47
2023-06-10T19:12:08.869Z,12.36
2023-06-10T19:14:48.214Z,12.78
2023-06-10T19:17:27.653Z,12.64
2023-06-10T19:20:07.178Z,12.62
2023-06-10T19:22:46.752Z,12.48
2023-06-10T19:25:31.152Z,12.49
2023-06-10T19:28:10.746Z,13.09
2023-06-10T19:30:50.826Z,13.02
2023-06-10T19:33:30.141Z,13.10
2023-06-10T19:36:09.585Z,12.98
2023-06-10T19:38:48.889Z,13.37
2023-06-10T19:41:33.298Z,13.21
2023-06-10T19:44:13.269Z,13.25
2023-06-10T19:46:54.904Z,13.17
2023-06-10T19:49:34.385Z,13.11
2023-06-10T19:52:14.243Z,13.52
2023-06-10T19:54:53.616Z,13.08
2023-06-10T19:57:38.248Z,12.94
2023-06-10T20:00:18.781Z,13.29
2023-06-10T20:02:58.217Z,13.67
2023-06-10T20:05:39.968Z,13.46
2023-06-10T20:08:19.309Z,13.26
2023-06-10T20:10:58.697Z,13.20
2023-06-10T20:13:43.122Z,12.73
2023-06-10T20:16:22.674Z,13.15
2023-06-10T20:19:05.088Z,13.10
2023-06-10T20:21:44.669Z,12.89
2023-06-10T20:24:24.186Z,12.44
2023-06-10T20:27:03.823Z,13.39
2023-06-10T20:29:48.748Z,13.40
2023-06-10T20:32:28.303Z,13.29
2023-06-10T20:35:08.064Z,13.02
2023-06-10T20:37:47.525Z,12.81
2023-06-10T20:40:26.911Z,13.46
2023-06-10T20:43:06.208Z,13.50
2023-06-10T20:45:50.937Z,13.60
2023-06-10T20:48:30.326Z,13.40
2023-06-10T20:51:09.745Z,12.91
2023-06-10T20:53:49.037Z,13.34
2023-06-10T20:56:28.442Z,12.72
2023-06-10T20:59:07.807Z,12.85
2023-06-10T21:01:52.236Z,12.48
2023-06-10T21:04:31.668Z,12.43
2023-06-10T21:07:11.415Z,12.72
2023-06-10T21:09:50.731Z,12.74
2023-06-10T21:12:30.220Z,12.87
2023-06-10T21:15:09.779Z,12.31
2023-06-10T21:17:54.521Z,12.85
2023-06-10T21:20:33.971Z,12.72
2023-06-10T21:23:13.382Z,12.38
2023-06-10T21:25:52.708Z,12.78
2023-06-10T21:28:32.102Z,13.07
2023-06-10T21:31:11.500Z,12.38
2023-06-10T21:33:55.959Z,12.46
2023-06-10T21:36:35.289Z,12.48
2023-06-10T21:39:14.630Z,12.56
2023-06-10T21:41:53.985Z,12.82
2023-06-10T21:44:33.306Z,13.24
2023-06-10T21:47:13.815Z,13.09
2023-06-10T21:49:58.256Z,13.03
2023-06-10T21:52:37.586Z,13.16
2023-06-10T21:55:17.179Z,13.43
2023-06-10T21:57:56.595Z,12.86
2023-06-10T22:00:35.954Z,13.19
2023-06-10T22:03:15.485Z,12.57
2023-06-10T22:06:03.412Z,12.73
2023-06-10T22:08:43.494Z,12.88
2023-06-10T22:11:23.022Z,12.89
2023-06-10T22:14:02.487Z,13.10
2023-06-10T22:16:41.874Z,13.81
2023-06-10T22:19:21.183Z,12.83
2023-06-10T22:22:05.584Z,12.75
2023-06-10T22:24:45.524Z,12.82
2023-06-10T22:27:24.845Z,13.54
2023-06-10T22:30:04.195Z,13.42
2023-06-10T22:32:43.617Z,13.49
2023-06-10T22:35:23.321Z,13.19
2023-06-10T22:38:07.683Z,13.10
2023-06-10T22:40:46.992Z,13.20
2023-06-10T22:43:26.328Z,13.46
2023-06-10T22:46:06.502Z,13.35
2023-06-10T22:48:45.922Z,13.02
2023-06-10T22:51:25.389Z,13.73
2023-06-10T22:54:09.799Z,13.29
2023-06-10T22:56:49.411Z,13.02
2023-06-10T22:59:28.742Z,13.56
2023-06-10T23:02:08.211Z,13.28
2023-06-10T23:04:47.583Z,13.25
2023-06-10T23:07:27.298Z,13.47
2023-06-10T23:10:12.579Z,13.73
2023-06-10T23:12:52.030Z,14.12
2023-06-10T23:15:31.347Z,13.76
2023-06-10T23:18:11.511Z,14.11
2023-06-10T23:20:51.046Z,13.90
2023-06-10T23:23:35.126Z,13.60
2023-06-10T23:26:19.657Z,13.43
2023-06-10T23:28:59.007Z,13.74
2023-06-10T23:31:38.400Z,14.62
2023-06-10T23:34:17.746Z,14.29
2023-06-10T23:36:58.745Z,13.48
2023-06-10T23:39:38.215Z,14.02
2023-06-10T23:42:22.872Z,14.13
2023-06-10T23:45:02.204Z,14.72
2023-06-10T23:47:41.687Z,14.71
2023-06-10T23:50:20.982Z,14.83
2023-06-10T23:53:00.298Z,14.71
2023-06-10T23:55:41.508Z,14.54
2023-06-10T23:58:25.930Z,14.91
